createdAt,value
2019-04-23T00:00:08.858Z,98785.25
2019-04-23T00:01:38.577Z,98786.73
2019-04-23T00:02:33.178Z,98777.59
2019-04-23T00:03:38.861Z,98781.63
2019-04-23T00:04:42.616Z,98777.39
2019-04-23T00:06:15.589Z,98784.78
2019-04-23T00:07:06.283Z,98784.73
2019-04-23T00:08:23.218Z,98781.22
2019-04-23T00:10:13.920Z,98785.35
2019-04-23T00:11:13.572Z,98778.48
2019-04-23T00:12:24.319Z,98789.34
2019-04-23T00:13:24.576Z,98778.67
2019-04-23T00:14:29.894Z,98785.42
2019-04-23T00:15:35.632Z,98775.17
2019-04-23T00:16:42.578Z,98776.31
2019-04-23T00:17:48.492Z,98776.75
2019-04-23T00:18:47.887Z,98780.48
2019-04-23T00:19:55.675Z,98782.30
2019-04-23T00:20:57.570Z,98779.50
2019-04-23T00:22:05.475Z,98782.67
2019-04-23T00:23:11.506Z,98775.22
2019-04-23T00:25:06.247Z,98775.13
2019-04-23T00:26:50.375Z,98783.16
2019-04-23T00:27:59.344Z,98787.69
2019-04-23T00:29:05.490Z,98783.86
2019-04-23T00:30:20.339Z,98791.48
2019-04-23T00:31:15.270Z,98783.70
2019-04-23T00:32:15.687Z,98788.21
2019-04-23T00:33:19.558Z,98781.58
2019-04-23T00:34:16.064Z,98784.77
2019-04-23T00:35:29.107Z,98785.89
2019-04-23T00:36:32.572Z,98786.02
2019-04-23T00:38:45.190Z,98774.92
2019-04-23T00:39:49.965Z,98783.18
2019-04-23T00:41:54.997Z,98782.60
2019-04-23T00:42:53.296Z,98785.70
2019-04-23T00:44:02.242Z,98782.69
2019-04-23T00:45:03.302Z,98795.91
2019-04-23T00:46:06.564Z,98789.58
2019-04-23T00:47:12.054Z,98788.21
2019-04-23T00:48:26.142Z,98788.54
2019-04-23T00:49:25.292Z,98789.69
2019-04-23T00:51:32.898Z,98795.63
2019-04-23T00:52:35.276Z,98789.80
2019-04-23T00:53:38.857Z,98795.33
2019-04-23T00:54:49.119Z,98789.64
2019-04-23T00:57:57.873Z,98791.44
2019-04-23T00:59:01.420Z,98788.91
2019-04-23T01:00:19.011Z,98787.99
2019-04-23T01:01:14.864Z,98790.55
2019-04-23T01:02:18.328Z,98785.83
2019-04-23T01:03:17.125Z,98790.08
2019-04-23T01:04:27.424Z,98786.16
2019-04-23T01:05:31.103Z,98794.52
2019-04-23T01:06:32.579Z,98782.92
2019-04-23T01:07:40.033Z,98785.16
2019-04-23T01:08:48.832Z,98786.39
2019-04-23T01:09:54.467Z,98783.08
2019-04-23T01:11:13.469Z,98768.64
2019-04-23T01:12:14.047Z,98788.66
2019-04-23T01:13:14.814Z,98792.02
2019-04-23T01:14:20.300Z,98783.27
2019-04-23T01:15:25.743Z,98791.16
2019-04-23T01:16:27.000Z,98792.14
2019-04-23T01:17:39.901Z,98788.38
2019-04-23T01:18:48.533Z,98791.01
2019-04-23T01:19:49.575Z,98789.74
2019-04-23T01:20:54.766Z,98781.80
2019-04-23T01:21:45.370Z,98786.39
2019-04-23T01:22:50.892Z,98790.03
2019-04-23T01:23:58.909Z,98787.17
2019-04-23T01:25:11.113Z,98792.54
2019-04-23T01:26:26.558Z,98786.84
2019-04-23T01:28:41.867Z,98791.61
2019-04-23T01:29:44.305Z,98785.40
2019-04-23T01:31:51.996Z,98786.03
2019-04-23T01:32:54.668Z,98789.34
2019-04-23T01:34:07.970Z,98788.59
2019-04-23T01:35:13.891Z,98785.02
2019-04-23T01:37:20.648Z,98781.73
2019-04-23T01:38:21.792Z,98774.83
2019-04-23T01:39:22.742Z,98784.27
2019-04-23T01:40:32.212Z,98778.78
2019-04-23T01:41:36.520Z,98779.27
2019-04-23T01:42:51.311Z,98776.92
2019-04-23T01:43:41.266Z,98777.54
2019-04-23T01:44:50.882Z,98773.55
2019-04-23T01:45:49.172Z,98774.78
2019-04-23T01:46:54.169Z,98767.71
2019-04-23T01:48:12.810Z,98763.64
2019-04-23T01:49:07.119Z,98770.80
2019-04-23T01:51:06.360Z,98764.02
2019-04-23T01:52:25.102Z,98765.13
2019-04-23T01:53:27.315Z,98764.11
2019-04-23T01:54:28.280Z,98765.20
2019-04-23T01:55:35.655Z,98758.04
2019-04-23T01:56:36.893Z,98758.48
2019-04-23T01:57:47.118Z,98755.09
2019-04-23T01:59:58.360Z,98761.05
2019-04-23T02:00:54.495Z,98758.98
2019-04-23T02:02:01.474Z,98752.44
2019-04-23T02:03:10.966Z,98757.98
2019-04-23T02:04:16.924Z,98760.09
2019-04-23T02:05:23.269Z,98755.25
2019-04-23T02:06:20.506Z,98756.27
2019-04-23T02:07:29.572Z,98759.70
2019-04-23T02:08:25.993Z,98763.72
2019-04-23T02:09:37.055Z,98763.12
2019-04-23T02:10:48.760Z,98757.98
2019-04-23T02:11:45.649Z,98757.20
2019-04-23T02:12:55.812Z,98760.78
2019-04-23T02:14:00.235Z,98760.08
2019-04-23T02:15:03.379Z,98763.27
2019-04-23T02:16:01.355Z,98756.83
2019-04-23T02:17:10.516Z,98761.17
2019-04-23T02:18:16.271Z,98755.02
2019-04-23T02:19:23.641Z,98764.56
2019-04-23T02:20:34.577Z,98761.25
2019-04-23T02:21:23.254Z,98752.27
2019-04-23T02:22:38.828Z,98752.83
2019-04-23T02:23:39.536Z,98755.92
2019-04-23T02:24:47.696Z,98759.20
2019-04-23T02:26:50.466Z,98761.50
2019-04-23T02:27:59.898Z,98756.78
2019-04-23T02:28:59.139Z,98754.16
2019-04-23T02:31:33.026Z,98759.17
2019-04-23T02:32:24.279Z,98762.25
2019-04-23T02:33:39.241Z,98759.88
2019-04-23T02:36:39.945Z,98748.88
2019-04-23T02:37:45.977Z,98751.89
2019-04-23T02:41:13.075Z,98742.86
2019-04-23T02:42:12.360Z,98753.57
2019-04-23T02:45:09.464Z,98748.53
2019-04-23T02:48:26.790Z,98744.18
2019-04-23T02:49:35.943Z,98738.65
2019-04-23T02:52:49.019Z,98745.58
2019-04-23T02:53:53.513Z,98745.92
2019-04-23T02:58:12.722Z,98746.17
2019-04-23T02:59:14.576Z,98742.91
2019-04-23T03:00:19.234Z,98739.91
2019-04-23T03:03:44.844Z,98738.01
2019-04-23T03:04:41.788Z,98733.47
2019-04-23T03:05:44.671Z,98743.81
2019-04-23T03:06:40.059Z,98742.77
2019-04-23T03:07:45.396Z,98729.44
2019-04-23T03:11:00.808Z,98736.09
2019-04-23T03:12:02.660Z,98737.53
2019-04-23T03:13:12.329Z,98738.17
2019-04-23T03:14:09.558Z,98736.11
2019-04-23T03:15:32.954Z,98736.14
2019-04-23T03:16:40.151Z,98731.80
2019-04-23T03:18:12.165Z,98739.07
2019-04-23T03:21:52.830Z,98741.28
2019-04-23T03:23:06.746Z,98734.71
2019-04-23T03:24:05.294Z,98743.58
2019-04-23T03:26:25.256Z,98733.56
2019-04-23T03:28:32.652Z,98737.64
2019-04-23T03:30:52.469Z,98734.25
2019-04-23T03:32:51.921Z,98740.97
2019-04-23T03:39:17.742Z,98730.08
2019-04-23T03:40:07.856Z,98723.31
2019-04-23T03:41:33.782Z,98729.54
2019-04-23T03:42:19.993Z,98727.56
2019-04-23T03:43:41.182Z,98729.20
2019-04-23T03:44:52.712Z,98736.17
2019-04-23T03:45:49.190Z,98733.41
2019-04-23T03:46:39.313Z,98734.97
2019-04-23T03:47:39.054Z,98726.50
2019-04-23T03:48:47.234Z,98727.91
2019-04-23T03:49:55.388Z,98731.41
2019-04-23T03:51:11.651Z,98725.30
2019-04-23T03:52:07.559Z,98724.73
2019-04-23T03:53:25.952Z,98717.39
2019-04-23T03:57:32.837Z,98712.61
2019-04-23T03:58:27.819Z,98708.75
2019-04-23T03:59:37.135Z,98712.15
2019-04-23T04:00:37.099Z,98721.59
2019-04-23T04:04:14.736Z,98711.61
2019-04-23T04:04:44.729Z,98714.56
2019-04-23T04:06:05.352Z,98724.05
2019-04-23T04:07:22.159Z,98733.50
2019-04-23T04:08:18.488Z,98731.78
2019-04-23T04:09:17.399Z,98730.89
2019-04-23T04:10:11.249Z,98734.27
2019-04-23T04:11:18.290Z,98731.22
2019-04-23T04:14:38.350Z,98741.71
2019-04-23T04:17:50.227Z,98742.61
2019-04-23T04:19:56.560Z,98746.29
2019-04-23T04:21:09.645Z,98736.50
2019-04-23T04:22:16.352Z,98754.13
2019-04-23T04:23:17.302Z,98752.13
2019-04-23T04:26:20.710Z,98755.12
2019-04-23T04:28:48.850Z,98755.06
2019-04-23T04:30:48.307Z,98748.95
2019-04-23T04:32:58.965Z,98751.70
2019-04-23T04:36:07.929Z,98745.17
2019-04-23T04:38:16.424Z,98757.84
2019-04-23T04:39:08.067Z,98748.66
2019-04-23T04:41:29.081Z,98751.81
2019-04-23T04:42:27.566Z,98759.97
2019-04-23T04:43:41.559Z,98745.36
2019-04-23T04:44:42.676Z,98746.40
2019-04-23T04:46:45.802Z,98749.92
2019-04-23T04:48:59.028Z,98751.08
2019-04-23T04:51:11.406Z,98740.06
2019-04-23T04:54:17.667Z,98741.80
2019-04-23T04:56:38.425Z,98740.27
2019-04-23T04:57:37.233Z,98748.50
2019-04-23T04:58:34.815Z,98747.61
2019-04-23T04:59:45.673Z,98747.45
2019-04-23T05:01:52.154Z,98751.97
2019-04-23T05:03:43.289Z,98738.42
2019-04-23T05:05:09.117Z,98743.05
2019-04-23T05:07:09.077Z,98743.63
2019-04-23T05:08:15.654Z,98743.02
2019-04-23T05:10:25.828Z,98743.77
2019-04-23T05:11:47.792Z,98745.99
2019-04-23T05:12:36.269Z,98741.00
2019-04-23T05:14:45.661Z,98741.51
2019-04-23T05:18:08.312Z,98745.63
2019-04-23T05:20:23.361Z,98740.06
2019-04-23T05:21:43.599Z,98740.77
2019-04-23T05:22:24.460Z,98747.57
2019-04-23T05:24:43.319Z,98749.61
2019-04-23T05:25:44.735Z,98750.23
2019-04-23T05:26:48.065Z,98753.70
2019-04-23T05:28:02.713Z,98754.31
2019-04-23T05:29:03.802Z,98747.88
2019-04-23T05:30:09.982Z,98754.05
2019-04-23T05:31:05.821Z,98756.44
2019-04-23T05:32:14.880Z,98755.18
2019-04-23T05:33:18.878Z,98751.50
2019-04-23T05:34:19.575Z,98744.45
2019-04-23T05:35:33.351Z,98748.05
2019-04-23T05:36:32.407Z,98753.98
2019-04-23T05:37:42.181Z,98746.67
2019-04-23T05:39:38.474Z,98750.84
2019-04-23T05:42:04.356Z,98738.78
2019-04-23T05:42:58.630Z,98737.80
2019-04-23T05:44:02.038Z,98743.15
2019-04-23T05:45:06.026Z,98737.54
2019-04-23T05:46:14.235Z,98738.80
2019-04-23T05:47:20.372Z,98746.19
2019-04-23T05:48:27.968Z,98748.16
2019-04-23T05:49:26.136Z,98745.74
2019-04-23T05:50:44.763Z,98752.73
2019-04-23T05:51:47.920Z,98745.94
2019-04-23T05:52:46.397Z,98752.69
2019-04-23T05:53:47.415Z,98746.31
2019-04-23T05:54:56.346Z,98745.12
2019-04-23T05:55:55.278Z,98744.67
2019-04-23T05:56:55.175Z,98747.41
2019-04-23T05:58:13.258Z,98745.30
2019-04-23T05:59:14.837Z,98747.03
2019-04-23T06:00:19.018Z,98742.27
2019-04-23T06:02:36.106Z,98748.81
2019-04-23T06:03:41.835Z,98749.88
2019-04-23T06:05:49.591Z,98744.05
2019-04-23T06:07:11.093Z,98757.59
2019-04-23T06:07:59.105Z,98743.39
2019-04-23T06:08:58.640Z,98753.83
2019-04-23T06:10:04.991Z,98752.82
2019-04-23T06:11:11.917Z,98746.78
2019-04-23T06:12:15.415Z,98752.38
2019-04-23T06:13:22.528Z,98745.14
2019-04-23T06:14:44.513Z,98757.73
2019-04-23T06:15:26.797Z,98759.98
2019-04-23T06:16:36.089Z,98754.88
2019-04-23T06:17:32.479Z,98754.05
2019-04-23T06:19:48.399Z,98755.92
2019-04-23T06:20:57.147Z,98762.08
2019-04-23T06:22:56.032Z,98761.48
2019-04-23T06:24:09.917Z,98765.13
2019-04-23T06:25:12.473Z,98768.45
2019-04-23T06:27:18.242Z,98761.47
2019-04-23T06:28:22.426Z,98758.08
2019-04-23T06:29:31.894Z,98764.48
2019-04-23T06:30:45.531Z,98770.52
2019-04-23T06:31:41.088Z,98758.95
2019-04-23T06:32:41.360Z,98764.37
2019-04-23T06:33:47.976Z,98762.98
2019-04-23T06:34:47.332Z,98765.91
2019-04-23T06:36:01.796Z,98757.37
2019-04-23T06:36:58.942Z,98765.52
2019-04-23T06:38:26.061Z,98764.39
2019-04-23T06:39:01.261Z,98761.16
2019-04-23T06:40:26.971Z,98769.80
2019-04-23T06:42:20.709Z,98760.71
2019-04-23T06:43:24.278Z,98768.39
2019-04-23T06:45:37.543Z,98752.00
2019-04-23T06:46:50.673Z,98772.88
2019-04-23T06:47:52.520Z,98763.19
2019-04-23T06:48:57.184Z,98759.45
2019-04-23T06:49:55.572Z,98762.00
2019-04-23T06:51:04.489Z,98750.27
2019-04-23T06:52:14.985Z,98755.75
2019-04-23T06:53:09.379Z,98751.13
2019-04-23T06:54:19.042Z,98751.22
2019-04-23T06:55:20.817Z,98756.23
2019-04-23T06:57:26.947Z,98758.47
2019-04-23T06:59:39.192Z,98753.31
2019-04-23T07:00:48.825Z,98758.73
2019-04-23T07:02:56.671Z,98757.56
2019-04-23T07:04:02.577Z,98766.02
2019-04-23T07:08:23.931Z,98769.09
2019-04-23T07:09:13.833Z,98764.83
2019-04-23T07:10:28.363Z,98764.23
2019-04-23T07:11:46.282Z,98767.61
2019-04-23T07:13:57.731Z,98763.47
2019-04-23T07:15:04.465Z,98764.27
2019-04-23T07:16:54.498Z,98769.25
2019-04-23T07:18:03.980Z,98775.89
2019-04-23T07:19:09.481Z,98769.52
2019-04-23T07:20:15.178Z,98769.84
2019-04-23T07:21:18.321Z,98768.19
2019-04-23T07:23:29.988Z,98776.36
2019-04-23T07:24:27.704Z,98776.17
2019-04-23T07:25:34.579Z,98771.02
2019-04-23T07:27:42.769Z,98775.34
2019-04-23T07:31:00.451Z,98770.20
2019-04-23T07:32:01.978Z,98776.33
2019-04-23T07:33:07.346Z,98775.19
2019-04-23T07:34:10.293Z,98775.13
2019-04-23T07:35:13.653Z,98786.09
2019-04-23T07:36:30.875Z,98778.36
2019-04-23T07:37:22.815Z,98784.26
2019-04-23T07:38:54.991Z,98781.63
2019-04-23T07:40:19.941Z,98778.91
2019-04-23T07:41:23.738Z,98783.20
2019-04-23T07:43:48.861Z,98788.77
2019-04-23T07:46:29.696Z,98779.05
2019-04-23T07:47:26.374Z,98780.48
2019-04-23T07:48:22.305Z,98778.52
2019-04-23T07:49:38.499Z,98780.01
2019-04-23T07:50:45.582Z,98778.48
2019-04-23T07:51:54.064Z,98783.23
2019-04-23T07:53:01.807Z,98786.47
2019-04-23T07:54:01.335Z,98782.77
2019-04-23T07:55:08.316Z,98774.41
2019-04-23T07:57:15.285Z,98777.27
2019-04-23T07:59:19.228Z,98773.16
2019-04-23T08:00:28.862Z,98778.13
2019-04-23T08:01:18.335Z,98778.06
2019-04-23T08:02:31.974Z,98771.03
2019-04-23T08:03:48.368Z,98766.85
2019-04-23T08:04:48.336Z,98770.36
2019-04-23T08:05:40.885Z,98765.77
2019-04-23T08:06:49.136Z,98769.40
2019-04-23T08:07:52.977Z,98769.52
2019-04-23T08:08:56.494Z,98764.84
2019-04-23T08:10:00.275Z,98770.41
2019-04-23T08:11:30.711Z,98773.16
2019-04-23T08:12:20.736Z,98772.22
2019-04-23T08:13:24.220Z,98773.44
2019-04-23T08:14:13.927Z,98772.03
2019-04-23T08:15:28.294Z,98781.06
2019-04-23T08:16:33.635Z,98775.67
2019-04-23T08:17:37.556Z,98775.38
2019-04-23T08:18:45.237Z,98770.66
2019-04-23T08:19:56.016Z,98771.95
2019-04-23T08:20:52.409Z,98768.76
2019-04-23T08:21:59.720Z,98773.73
2019-04-23T08:23:01.894Z,98765.63
2019-04-23T08:25:12.793Z,98769.84
2019-04-23T08:27:36.785Z,98762.52
2019-04-23T08:28:52.130Z,98766.26
2019-04-23T08:29:41.378Z,98755.34
2019-04-23T08:30:53.075Z,98768.06
2019-04-23T08:32:00.601Z,98762.62
2019-04-23T08:33:04.009Z,98763.37
2019-04-23T08:34:16.533Z,98758.81
2019-04-23T08:35:10.593Z,98772.36
2019-04-23T08:36:23.737Z,98760.72
2019-04-23T08:38:38.793Z,98771.49
2019-04-23T08:39:33.993Z,98769.39
2019-04-23T08:40:35.333Z,98770.95
2019-04-23T08:41:46.301Z,98767.28
2019-04-23T08:43:57.221Z,98763.52
2019-04-23T08:46:08.171Z,98772.80
2019-04-23T08:49:31.007Z,98758.91
2019-04-23T08:50:32.229Z,98768.63
2019-04-23T08:51:44.533Z,98761.86
2019-04-23T08:52:34.654Z,98756.16
2019-04-23T08:53:42.743Z,98775.45
2019-04-23T08:54:56.832Z,98768.55
2019-04-23T08:57:02.442Z,98760.63
2019-04-23T08:58:00.251Z,98763.73
2019-04-23T08:59:21.263Z,98770.08
2019-04-23T09:00:07.782Z,98766.39
2019-04-23T09:02:30.614Z,98775.63
2019-04-23T09:05:38.678Z,98780.67
2019-04-23T09:06:38.760Z,98767.03
2019-04-23T09:07:46.809Z,98770.22
2019-04-23T09:09:04.170Z,98777.59
2019-04-23T09:09:56.796Z,98781.48
2019-04-23T09:12:01.151Z,98760.72
2019-04-23T09:13:36.427Z,98770.41
2019-04-23T09:14:05.302Z,98767.72
2019-04-23T09:17:27.577Z,98765.66
2019-04-23T09:18:26.246Z,98769.57
2019-04-23T09:19:42.277Z,98771.78
2019-04-23T09:20:30.939Z,98767.53
2019-04-23T09:21:43.493Z,98770.13
2019-04-23T09:22:47.838Z,98769.38
2019-04-23T09:23:54.039Z,98776.69
2019-04-23T09:25:02.775Z,98765.35
2019-04-23T09:25:57.575Z,98758.53
2019-04-23T09:27:18.139Z,98764.16
2019-04-23T09:28:15.724Z,98775.89
2019-04-23T09:29:28.033Z,98759.77
2019-04-23T09:30:25.230Z,98774.10
2019-04-23T09:32:07.770Z,98779.97
2019-04-23T09:32:54.499Z,98761.32
2019-04-23T09:33:58.612Z,98763.11
2019-04-23T09:35:15.454Z,98770.41
2019-04-23T09:36:18.458Z,98762.71
2019-04-23T09:37:19.463Z,98774.00
2019-04-23T09:38:34.438Z,98763.91
2019-04-23T09:39:45.867Z,98761.27
2019-04-23T09:42:22.696Z,98772.44
2019-04-23T09:44:56.560Z,98763.56
2019-04-23T09:46:05.696Z,98763.39
2019-04-23T09:47:19.867Z,98768.81
2019-04-23T09:48:35.446Z,98764.52
2019-04-23T09:49:31.092Z,98761.34
2019-04-23T09:50:29.263Z,98757.42
2019-04-23T09:51:36.714Z,98758.83
2019-04-23T09:52:40.377Z,98768.52
2019-04-23T09:54:01.086Z,98757.59
2019-04-23T09:54:51.370Z,98768.66
2019-04-23T09:56:01.229Z,98752.73
2019-04-23T09:56:52.276Z,98751.52
2019-04-23T09:58:03.146Z,98749.52
2019-04-23T09:59:10.949Z,98761.30
2019-04-23T10:00:23.047Z,98759.64
2019-04-23T10:44:46.611Z,98754.22
2019-04-23T10:46:07.849Z,98744.63
2019-04-23T10:47:44.770Z,98748.47
2019-04-23T10:49:26.037Z,98749.32
2019-04-23T10:50:42.214Z,98748.94
2019-04-23T10:52:47.235Z,98741.20
2019-04-23T10:54:23.974Z,98742.01
2019-04-23T10:55:11.897Z,98746.97
2019-04-23T10:56:18.075Z,98762.95
2019-04-23T10:57:31.628Z,98749.16
2019-04-23T10:58:32.098Z,98761.50
2019-04-23T10:59:40.279Z,98758.22
2019-04-23T11:00:44.893Z,98753.80
2019-04-23T11:01:53.147Z,98750.82
2019-04-23T11:02:50.954Z,98736.81
2019-04-23T11:04:10.729Z,98743.78
2019-04-23T11:06:21.488Z,98743.59
2019-04-23T11:07:27.038Z,98738.39
2019-04-23T11:08:19.000Z,98737.38
2019-04-23T11:09:36.528Z,98746.17
2019-04-23T11:10:23.020Z,98742.33
2019-04-23T11:11:32.364Z,98750.97
2019-04-23T11:14:58.515Z,98738.61
2019-04-23T11:16:25.077Z,98734.32
2019-04-23T11:17:31.387Z,98743.27
2019-04-23T11:18:04.093Z,98744.05
2019-04-23T11:19:15.180Z,98742.41
2019-04-23T11:20:25.466Z,98744.67
2019-04-23T11:21:28.736Z,98734.77
2019-04-23T11:23:32.112Z,98749.03
2019-04-23T11:25:23.624Z,98743.27
2019-04-23T11:25:41.445Z,98747.84
2019-04-23T11:26:43.009Z,98750.70
2019-04-23T11:27:53.871Z,98753.64
2019-04-23T11:28:55.292Z,98750.73
2019-04-23T11:31:19.709Z,98750.07
2019-04-23T11:33:20.272Z,98747.25
2019-04-23T11:34:44.507Z,98745.27
2019-04-23T11:35:29.631Z,98748.53
2019-04-23T11:36:47.981Z,98741.22
2019-04-23T11:39:45.258Z,98729.33
2019-04-23T11:40:42.180Z,98745.55
2019-04-23T11:41:59.855Z,98743.77
2019-04-23T11:44:10.044Z,98745.38
2019-04-23T11:45:21.421Z,98744.05
2019-04-23T11:47:41.991Z,98743.44
2019-04-23T11:51:05.094Z,98739.58
2019-04-23T11:51:46.018Z,98751.50
2019-04-23T11:52:48.548Z,98739.36
2019-04-23T11:54:43.200Z,98743.36
2019-04-23T11:55:53.791Z,98743.27
2019-04-23T11:59:12.342Z,98734.70
2019-04-23T12:00:13.898Z,98722.61
2019-04-23T12:01:38.783Z,98735.21
2019-04-23T12:02:22.042Z,98729.41
2019-04-23T12:03:28.666Z,98721.29
2019-04-23T12:06:12.145Z,98718.26
2019-04-23T12:07:19.675Z,98719.78
2019-04-23T12:08:38.396Z,98715.01
2019-04-23T12:09:43.109Z,98714.30
2019-04-23T12:12:53.379Z,98713.97
2019-04-23T12:14:18.276Z,98704.53
2019-04-23T12:15:18.303Z,98702.89
2019-04-23T12:16:20.426Z,98704.20
2019-04-23T12:17:26.014Z,98697.34
2019-04-23T12:18:43.271Z,98694.34
2019-04-23T12:20:37.685Z,98697.83
2019-04-23T12:21:54.738Z,98691.39
2019-04-23T12:22:58.739Z,98687.95
2019-04-23T12:24:16.261Z,98686.92
2019-04-23T12:26:17.764Z,98684.11
2019-04-23T12:27:15.198Z,98679.12
2019-04-23T12:28:17.983Z,98671.08
2019-04-23T12:29:23.315Z,98678.20
2019-04-23T12:30:25.387Z,98679.83
2019-04-23T12:31:31.492Z,98671.37
2019-04-23T12:33:44.153Z,98658.28
2019-04-23T12:34:52.606Z,98668.19
2019-04-23T12:35:47.141Z,98653.66
2019-04-23T12:36:58.544Z,98659.54
2019-04-23T12:39:23.893Z,98655.08
2019-04-23T12:41:30.564Z,98645.30
2019-04-23T12:42:48.827Z,98642.81
2019-04-23T12:43:28.642Z,98646.75
2019-04-23T12:44:38.553Z,98632.94
2019-04-23T12:45:50.446Z,98647.71
2019-04-23T12:46:57.551Z,98644.78
2019-04-23T12:47:56.745Z,98644.61
2019-04-23T12:50:31.050Z,98638.99
2019-04-23T12:51:01.269Z,98636.02
2019-04-23T12:52:14.308Z,98644.30
2019-04-23T12:53:23.688Z,98651.58
2019-04-23T12:54:37.358Z,98645.30
2019-04-23T12:55:31.902Z,98640.35
2019-04-23T12:56:46.416Z,98635.37
2019-04-23T12:57:34.354Z,98638.34
2019-04-23T12:58:29.261Z,98639.70
2019-04-23T12:59:44.133Z,98621.13
2019-04-23T13:00:48.440Z,98632.75
2019-04-23T13:01:55.644Z,98639.05
2019-04-23T13:03:55.680Z,98628.37
2019-04-23T13:05:21.429Z,98627.05
2019-04-23T13:05:59.205Z,98628.37
2019-04-23T13:07:17.200Z,98629.48
2019-04-23T13:09:40.453Z,98632.84
2019-04-23T13:10:28.355Z,98625.39
2019-04-23T13:12:48.021Z,98619.41
2019-04-23T13:13:45.891Z,98629.54
2019-04-23T13:15:53.613Z,98612.81
2019-04-23T13:17:14.346Z,98611.16
2019-04-23T13:18:04.759Z,98624.44
2019-04-23T13:19:16.805Z,98610.11
2019-04-23T13:20:20.412Z,98607.50
2019-04-23T13:21:38.487Z,98614.78
2019-04-23T13:22:30.714Z,98611.28
2019-04-23T13:23:30.773Z,98611.55
2019-04-23T13:24:48.705Z,98604.60
2019-04-23T13:25:54.181Z,98605.44
2019-04-23T13:27:23.968Z,98598.48
2019-04-23T13:28:21.000Z,98600.14
2019-04-23T13:29:37.931Z,98598.77
2019-04-23T13:30:49.938Z,98595.45
2019-04-23T13:31:39.745Z,98594.77
2019-04-23T13:32:56.380Z,98591.47
2019-04-23T13:34:08.995Z,98596.95
2019-04-23T13:37:13.982Z,98580.05
2019-04-23T13:38:19.605Z,98587.80
2019-04-23T13:39:21.195Z,98585.94
2019-04-23T13:40:22.779Z,98585.33
2019-04-23T13:41:20.081Z,98580.85
2019-04-23T13:42:44.817Z,98584.77
2019-04-23T13:44:42.119Z,98583.45
2019-04-23T13:45:59.990Z,98574.36
2019-04-23T13:46:50.472Z,98576.83
2019-04-23T13:48:03.432Z,98578.14
2019-04-23T13:48:58.332Z,98577.14
2019-04-23T13:50:10.159Z,98571.50
2019-04-23T13:51:14.241Z,98566.84
2019-04-23T13:52:45.611Z,98567.78
2019-04-23T13:53:31.675Z,98565.59
2019-04-23T13:54:41.980Z,98571.83
2019-04-23T13:55:24.282Z,98564.80
2019-04-23T13:56:39.148Z,98572.51
2019-04-23T13:57:56.019Z,98567.27
2019-04-23T13:58:43.671Z,98564.55
2019-04-23T13:59:45.010Z,98563.70
2019-04-23T14:01:01.218Z,98566.95
2019-04-23T14:01:46.831Z,98563.44
2019-04-23T14:02:54.829Z,98565.78
2019-04-23T14:04:11.964Z,98562.92
2019-04-23T14:05:22.475Z,98562.28
2019-04-23T14:07:48.386Z,98565.81
2019-04-23T14:11:05.549Z,98555.34
2019-04-23T14:11:46.581Z,98556.11
2019-04-23T14:14:05.611Z,98549.42
2019-04-23T14:16:22.787Z,98553.67
2019-04-23T14:17:30.469Z,98548.23
2019-04-23T14:19:16.258Z,98552.19
2019-04-23T14:20:31.605Z,98544.39
2019-04-23T14:21:37.467Z,98548.95
2019-04-23T14:23:07.793Z,98542.74
2019-04-23T14:27:09.628Z,98556.20
2019-04-23T14:29:04.159Z,98552.16
2019-04-23T14:30:23.953Z,98556.98
2019-04-23T14:31:17.449Z,98550.36
2019-04-23T14:32:39.988Z,98540.06
2019-04-23T14:33:40.131Z,98548.87
2019-04-23T14:34:37.767Z,98541.83
2019-04-23T14:35:40.527Z,98547.47
2019-04-23T14:36:44.711Z,98541.67
2019-04-23T14:38:07.339Z,98545.67
2019-04-23T14:38:52.779Z,98549.27
2019-04-23T14:39:52.877Z,98540.77
2019-04-23T14:41:12.467Z,98549.41
2019-04-23T14:42:21.163Z,98549.09
2019-04-23T14:44:16.104Z,98533.72
2019-04-23T14:48:00.817Z,98542.95
2019-04-23T14:48:39.076Z,98534.27
2019-04-23T14:49:45.408Z,98536.75
2019-04-23T14:50:53.470Z,98531.60
2019-04-23T14:51:58.859Z,98532.09
2019-04-23T14:53:07.680Z,98533.39
2019-04-23T14:54:23.514Z,98525.41
2019-04-23T14:56:24.072Z,98533.55
2019-04-23T14:57:35.251Z,98525.85
2019-04-23T14:58:44.057Z,98526.67
2019-04-23T14:59:29.142Z,98532.16
2019-04-23T15:03:00.282Z,98529.18
2019-04-23T15:03:51.488Z,98536.52
2019-04-23T15:05:03.698Z,98530.59
2019-04-23T15:07:18.881Z,98524.55
2019-04-23T15:08:25.017Z,98521.17
2019-04-23T15:10:24.885Z,98519.57
2019-04-23T15:13:43.167Z,98527.14
2019-04-23T15:14:52.707Z,98515.88
2019-04-23T15:15:57.908Z,98517.84
2019-04-23T15:16:51.477Z,98518.83
2019-04-23T15:18:01.565Z,98522.49
2019-04-23T15:19:16.401Z,98514.03
2019-04-23T15:20:23.024Z,98518.14
2019-04-23T15:22:53.386Z,98513.00
2019-04-23T15:24:43.852Z,98511.44
2019-04-23T15:26:03.504Z,98517.59
2019-04-23T15:28:06.037Z,98516.00
2019-04-23T15:28:37.505Z,98516.17
2019-04-23T15:29:56.487Z,98519.19
2019-04-23T15:31:09.617Z,98513.14
2019-04-23T15:32:07.752Z,98517.56
2019-04-23T15:33:26.021Z,98523.83
2019-04-23T15:36:51.632Z,98514.30
2019-04-23T15:38:46.287Z,98525.16
2019-04-23T15:39:53.103Z,98520.14
2019-04-23T15:40:53.993Z,98521.39
2019-04-23T15:41:59.152Z,98527.91
2019-04-23T15:43:02.743Z,98517.85
2019-04-23T15:44:07.363Z,98511.03
2019-04-23T15:45:09.598Z,98515.92
2019-04-23T15:46:12.977Z,98516.64
2019-04-23T15:47:20.057Z,98508.62
2019-04-23T15:48:16.056Z,98512.69
2019-04-23T15:49:19.924Z,98521.02
2019-04-23T15:50:28.329Z,98519.05
2019-04-23T15:52:48.460Z,98519.65
2019-04-23T15:53:41.146Z,98515.11
2019-04-23T15:54:50.896Z,98518.80
2019-04-23T15:55:49.456Z,98507.40
2019-04-23T15:56:55.289Z,98509.83
2019-04-23T15:58:09.210Z,98516.22
2019-04-23T16:00:05.418Z,98507.41
2019-04-23T16:01:55.207Z,98508.15
2019-04-23T16:02:58.050Z,98511.31
2019-04-23T16:04:01.217Z,98504.44
2019-04-23T16:05:08.425Z,98504.29
2019-04-23T16:06:13.514Z,98509.01
2019-04-23T16:07:31.369Z,98508.61
2019-04-23T16:08:59.187Z,98514.64
2019-04-23T16:09:55.711Z,98516.28
2019-04-23T16:11:04.878Z,98510.80
2019-04-23T16:11:51.933Z,98508.55
2019-04-23T16:13:02.465Z,98509.64
2019-04-23T16:15:12.895Z,98512.20
2019-04-23T16:16:28.406Z,98513.85
2019-04-23T16:18:51.597Z,98513.18
2019-04-23T16:20:19.037Z,98510.68
2019-04-23T16:21:20.393Z,98511.28
2019-04-23T16:22:35.571Z,98491.16
2019-04-23T16:23:21.041Z,98499.59
2019-04-23T16:24:22.120Z,98507.92
2019-04-23T16:25:31.745Z,98513.53
2019-04-23T16:27:45.743Z,98505.80
2019-04-23T16:29:13.259Z,98516.20
2019-04-23T16:32:10.105Z,98503.01
2019-04-23T16:33:08.362Z,98500.27
2019-04-23T16:35:28.385Z,98507.50
2019-04-23T16:37:29.261Z,98504.64
2019-04-23T16:38:47.573Z,98509.16
2019-04-23T16:39:37.868Z,98503.75
2019-04-23T16:40:41.438Z,98500.28
2019-04-23T16:42:59.799Z,98499.73
2019-04-23T16:44:08.017Z,98504.21
2019-04-23T16:45:12.520Z,98492.63
2019-04-23T16:47:21.729Z,98507.36
2019-04-23T16:49:23.189Z,98498.28
2019-04-23T16:52:52.230Z,98501.53
2019-04-23T16:53:35.776Z,98502.34
2019-04-23T16:54:54.592Z,98501.16
2019-04-23T16:55:59.976Z,98501.53
2019-04-23T16:59:13.538Z,98507.09
2019-04-23T17:00:24.021Z,98505.77
2019-04-23T17:01:13.305Z,98506.75